Terminal Aerodrome Forecast
Issued by NWS Albuquerque, NM

Home | Current Version | Previous Version | Text Only | Print | Product List | Glossary On
Versions: 1 2 3 4 5 6 7 8 9 10 11 12 13
000
FTUS45 KABQ 271740
TAFABQ
TAF
KABQ 271740Z 2718/2818 29014G22KT P6SM FEW080 SCT200
     FM272030 29015G24KT P6SM VCSH BKN090
      TEMPO 2721/2801 VRB18G29KT
     FM280200 32009KT P6SM SCT100 SCT150
     FM280600 VRB05KT P6SM FEW120=

USA.gov is the U.S. government's official web portal to all federal, state and local government web resources and services.